createdAt,value
2018-09-12T00:00:12.427Z,19.54
2018-09-12T00:02:41.273Z,19.55
2018-09-12T00:05:10.135Z,19.52
2018-09-12T00:07:38.998Z,19.51
2018-09-12T00:10:07.869Z,19.47
2018-09-12T00:12:36.779Z,19.44
2018-09-12T00:15:05.656Z,19.47
2018-09-12T00:17:34.469Z,19.48
2018-09-12T00:20:03.375Z,19.47
2018-09-12T00:22:32.197Z,19.43
2018-09-12T00:25:01.194Z,19.52
2018-09-12T00:27:30.073Z,19.51
2018-09-12T00:29:58.966Z,19.49
2018-09-12T00:32:27.826Z,19.49
2018-09-12T00:34:56.689Z,19.47
2018-09-12T00:37:25.539Z,19.49
2018-09-12T00:39:54.373Z,19.49
2018-09-12T00:42:24.434Z,19.47
2018-09-12T00:44:53.241Z,19.54
2018-09-12T00:47:22.041Z,19.57
2018-09-12T00:49:50.931Z,19.52
2018-09-12T00:52:19.751Z,19.57
2018-09-12T00:54:48.594Z,19.53
2018-09-12T00:57:17.415Z,19.53
2018-09-12T00:59:46.311Z,19.51
2018-09-12T01:02:15.181Z,19.51
2018-09-12T01:04:44.149Z,19.66
2018-09-12T01:07:13.008Z,19.71
2018-09-12T01:09:41.918Z,19.70
2018-09-12T01:12:10.813Z,19.70
2018-09-12T01:14:39.639Z,19.50
2018-09-12T01:17:08.508Z,19.42
2018-09-12T01:19:37.325Z,19.36
2018-09-12T01:22:06.148Z,19.31
2018-09-12T01:24:35.013Z,19.44
2018-09-12T01:27:03.842Z,19.62
2018-09-12T01:29:32.712Z,19.67
2018-09-12T01:32:01.617Z,19.49
2018-09-12T01:34:30.489Z,19.25
2018-09-12T01:36:59.308Z,19.06
2018-09-12T01:39:28.162Z,19.08
2018-09-12T01:41:57.025Z,19.01
2018-09-12T01:44:25.825Z,18.98
2018-09-12T01:46:54.719Z,19.01
2018-09-12T01:49:23.519Z,19.00
2018-09-12T01:51:52.338Z,19.07
2018-09-12T01:54:21.227Z,19.22
2018-09-12T01:56:50.057Z,19.19
2018-09-12T01:59:18.883Z,19.28
2018-09-12T02:01:47.741Z,19.27
2018-09-12T02:04:16.546Z,19.60
2018-09-12T02:06:45.391Z,19.53
2018-09-12T02:09:15.343Z,19.67
2018-09-12T02:11:44.182Z,19.80
2018-09-12T02:14:13.044Z,19.71
2018-09-12T02:16:41.908Z,19.69
2018-09-12T02:19:10.711Z,19.58
2018-09-12T02:21:39.551Z,19.51
2018-09-12T02:24:08.406Z,19.39
2018-09-12T02:26:37.411Z,19.24
2018-09-12T02:29:06.441Z,19.21
2018-09-12T02:31:35.250Z,19.28
2018-09-12T02:34:04.102Z,19.21
2018-09-12T02:36:32.970Z,19.32
2018-09-12T02:39:01.791Z,19.33
2018-09-12T02:41:30.685Z,19.31
2018-09-12T02:43:59.635Z,19.35
2018-09-12T02:46:28.577Z,19.38
2018-09-12T02:48:57.455Z,19.44
2018-09-12T02:51:26.392Z,19.42
2018-09-12T02:53:55.260Z,19.40
2018-09-12T02:56:24.147Z,19.27
2018-09-12T02:58:53.082Z,19.38
2018-09-12T03:01:21.978Z,19.30
2018-09-12T03:07:06.003Z,19.12
2018-09-12T03:09:34.909Z,19.10
2018-09-12T03:12:03.749Z,19.04
2018-09-12T03:14:32.650Z,19.04
2018-09-12T03:17:01.494Z,18.97
2018-09-12T03:19:30.440Z,18.93
2018-09-12T03:21:59.325Z,18.90
2018-09-12T03:24:28.265Z,18.93
2018-09-12T03:26:57.119Z,18.89
2018-09-12T03:29:26.061Z,18.86
2018-09-12T03:31:54.923Z,18.83
2018-09-12T03:34:23.743Z,18.98
2018-09-12T03:36:54.272Z,19.10
2018-09-12T03:39:23.086Z,19.20
2018-09-12T03:41:51.918Z,19.33
2018-09-12T03:44:20.827Z,19.16
2018-09-12T03:46:49.653Z,19.10
2018-09-12T03:49:18.474Z,19.10
2018-09-12T03:51:47.301Z,19.12
2018-09-12T03:54:16.187Z,19.16
2018-09-12T03:56:45.003Z,19.23
2018-09-12T03:59:13.933Z,19.36
2018-09-12T04:01:42.794Z,19.41
2018-09-12T04:04:11.615Z,19.42
2018-09-12T04:06:40.437Z,19.43
2018-09-12T04:09:10.042Z,19.21
2018-09-12T04:11:38.880Z,19.04
2018-09-12T04:14:08.453Z,19.04
2018-09-12T04:16:39.024Z,19.03
2018-09-12T04:19:07.861Z,19.04
2018-09-12T04:21:36.693Z,19.05
2018-09-12T04:24:05.646Z,19.08
2018-09-12T04:26:35.104Z,18.95
2018-09-12T04:29:03.943Z,19.06
2018-09-12T04:31:34.201Z,19.18
2018-09-12T04:34:03.030Z,19.21
2018-09-12T04:36:31.853Z,19.17
2018-09-12T04:39:00.769Z,19.20
2018-09-12T04:41:29.608Z,19.29
2018-09-12T04:43:58.510Z,19.36
2018-09-12T04:46:28.802Z,19.31
2018-09-12T04:48:57.675Z,19.33
2018-09-12T04:51:26.570Z,19.35
2018-09-12T04:53:55.434Z,19.36
2018-09-12T04:56:24.249Z,19.37
2018-09-12T04:58:53.130Z,19.42
2018-09-12T05:01:22.069Z,19.50
2018-09-12T05:03:50.891Z,19.51
2018-09-12T05:06:19.714Z,19.46
2018-09-12T05:08:48.570Z,19.45
2018-09-12T05:11:17.442Z,19.55
2018-09-12T05:13:46.278Z,19.60
2018-09-12T05:16:15.137Z,19.60
2018-09-12T05:18:44.035Z,19.62
2018-09-12T05:21:12.827Z,19.65
2018-09-12T05:23:41.768Z,19.64
2018-09-12T05:26:10.622Z,19.61
2018-09-12T05:28:39.520Z,19.64
2018-09-12T05:31:08.338Z,19.58
2018-09-12T05:33:37.163Z,19.61
2018-09-12T05:36:06.325Z,19.59
2018-09-12T05:38:35.241Z,19.62
2018-09-12T05:41:04.090Z,19.55
2018-09-12T05:43:32.906Z,19.58
2018-09-12T05:46:01.770Z,19.63
2018-09-12T05:48:30.623Z,19.67
2018-09-12T05:50:59.445Z,19.64
2018-09-12T05:53:28.262Z,19.54
2018-09-12T05:55:57.118Z,19.67
2018-09-12T05:58:25.989Z,19.67
2018-09-12T06:00:54.810Z,19.71
2018-09-12T06:03:23.607Z,19.75
2018-09-12T06:05:52.474Z,19.77
2018-09-12T06:08:21.397Z,19.95
2018-09-12T06:10:50.342Z,20.01
2018-09-12T06:13:19.151Z,20.12
2018-09-12T06:15:48.046Z,20.05
2018-09-12T06:18:16.859Z,20.09
2018-09-12T06:20:45.707Z,20.26
2018-09-12T06:23:14.577Z,20.35
2018-09-12T06:25:43.394Z,20.28
2018-09-12T06:28:12.270Z,20.26
2018-09-12T06:30:41.191Z,20.46
2018-09-12T06:33:10.161Z,20.61
2018-09-12T06:35:39.139Z,20.71
2018-09-12T06:38:08.136Z,20.90
2018-09-12T06:40:37.124Z,20.68
2018-09-12T06:43:06.486Z,21.01
2018-09-12T06:45:36.680Z,20.71
2018-09-12T06:48:05.943Z,21.04
2018-09-12T06:50:34.899Z,20.67
2018-09-12T06:53:03.923Z,20.77
2018-09-12T06:55:33.014Z,20.51
2018-09-12T06:58:01.963Z,20.98
2018-09-12T07:00:30.900Z,20.78
2018-09-12T07:02:59.931Z,20.92
2018-09-12T07:05:28.906Z,20.91
2018-09-12T07:07:57.860Z,20.65
2018-09-12T07:10:26.824Z,20.70
2018-09-12T07:12:57.253Z,20.84
2018-09-12T07:15:26.232Z,20.80
2018-09-12T07:17:55.242Z,21.38
2018-09-12T07:20:24.451Z,21.11
2018-09-12T07:22:53.526Z,21.26
2018-09-12T07:25:22.442Z,21.14
2018-09-12T07:27:51.460Z,21.59
2018-09-12T07:30:20.465Z,21.31
2018-09-12T07:32:49.356Z,21.41
2018-09-12T07:35:18.339Z,21.56
2018-09-12T07:37:48.772Z,21.72
2018-09-12T07:40:18.003Z,21.26
2018-09-12T07:42:46.955Z,21.27
2018-09-12T07:45:15.941Z,21.17
2018-09-12T07:47:44.908Z,21.01
2018-09-12T07:50:13.819Z,21.36
2018-09-12T07:52:43.977Z,21.49
2018-09-12T07:55:13.015Z,21.56
2018-09-12T07:57:42.086Z,21.58
2018-09-12T08:00:12.753Z,21.35
2018-09-12T08:02:41.674Z,21.45
2018-09-12T08:05:10.721Z,21.58
2018-09-12T08:07:39.700Z,21.53
2018-09-12T08:10:08.709Z,21.41
2018-09-12T08:12:37.713Z,21.74
2018-09-12T08:15:07.992Z,21.03
2018-09-12T08:17:36.996Z,21.70
2018-09-12T08:20:05.984Z,21.26
2018-09-12T08:22:35.041Z,21.11
2018-09-12T08:25:05.517Z,21.37
2018-09-12T08:27:34.473Z,20.98
2018-09-12T08:30:04.893Z,20.95
2018-09-12T08:32:33.869Z,21.05
2018-09-12T08:35:02.864Z,21.03
2018-09-12T08:37:31.880Z,21.20
2018-09-12T08:40:00.901Z,21.11
2018-09-12T08:42:29.883Z,20.76
2018-09-12T08:44:59.082Z,20.76
2018-09-12T08:47:28.070Z,20.83
2018-09-12T08:49:57.055Z,21.04
2018-09-12T08:52:27.440Z,21.12
2018-09-12T08:54:56.428Z,21.68
2018-09-12T08:57:25.409Z,21.50
2018-09-12T08:59:56.164Z,21.38
2018-09-12T09:02:25.133Z,21.26
2018-09-12T09:04:54.076Z,21.52
2018-09-12T09:07:23.119Z,21.78
2018-09-12T09:09:52.040Z,22.07
2018-09-12T09:12:20.907Z,21.67
2018-09-12T09:14:49.873Z,21.49
2018-09-12T09:17:18.847Z,21.60
2018-09-12T09:19:47.775Z,21.24
2018-09-12T09:22:16.805Z,21.93
2018-09-12T09:24:45.756Z,22.32
2018-09-12T09:27:14.828Z,22.38
2018-09-12T09:29:43.815Z,22.04
2018-09-12T09:32:12.772Z,22.51
2018-09-12T09:34:41.768Z,21.79
2018-09-12T09:37:10.700Z,22.31
2018-09-12T09:39:39.695Z,21.65
2018-09-12T09:42:08.710Z,22.04
2018-09-12T09:44:37.633Z,21.79
2018-09-12T09:47:06.724Z,22.01
2018-09-12T09:49:35.671Z,21.79
2018-09-12T09:52:04.724Z,21.81
2018-09-12T09:54:33.722Z,22.11
2018-09-12T09:57:02.745Z,22.04
2018-09-12T09:59:31.705Z,22.69
2018-09-12T10:02:05.629Z,22.03
2018-09-12T10:04:39.627Z,22.19
2018-09-12T10:07:13.560Z,23.03
2018-09-12T10:09:42.592Z,23.16
2018-09-12T10:12:11.616Z,22.98
2018-09-12T10:14:40.572Z,23.08
2018-09-12T10:17:09.521Z,23.29
2018-09-12T10:19:38.459Z,23.32
2018-09-12T10:22:07.469Z,23.48
2018-09-12T10:24:36.511Z,23.02
2018-09-12T10:27:05.630Z,23.29
2018-09-12T10:29:34.573Z,23.47
2018-09-12T10:32:04.617Z,23.90
2018-09-12T10:34:33.580Z,24.02
2018-09-12T10:37:03.820Z,24.03
2018-09-12T10:39:32.718Z,24.29
2018-09-12T10:42:01.629Z,23.90
2018-09-12T10:44:30.612Z,23.17
2018-09-12T10:46:59.499Z,23.30
2018-09-12T10:49:28.379Z,23.66
2018-09-12T10:51:58.549Z,23.85
2018-09-12T10:54:27.419Z,23.52
2018-09-12T10:56:57.658Z,23.68
2018-09-12T10:59:27.840Z,23.89
2018-09-12T11:01:56.820Z,24.08
2018-09-12T11:04:25.929Z,23.59
2018-09-12T11:06:56.097Z,23.90
2018-09-12T11:09:25.079Z,23.77
2018-09-12T11:11:54.087Z,24.45
2018-09-12T11:14:23.055Z,24.59
2018-09-12T11:16:52.281Z,24.74
2018-09-12T11:19:21.237Z,24.38
2018-09-12T11:21:50.260Z,24.63
2018-09-12T11:24:19.240Z,24.52
2018-09-12T11:26:48.324Z,24.21
2018-09-12T11:29:17.231Z,24.11
2018-09-12T11:31:46.207Z,23.83
2018-09-12T11:34:15.170Z,23.57
2018-09-12T11:36:44.304Z,23.25
2018-09-12T11:39:13.382Z,22.68
2018-09-12T11:41:42.534Z,22.36
2018-09-12T11:44:11.587Z,21.80
2018-09-12T11:46:40.574Z,21.63
2018-09-12T11:49:09.668Z,21.53
2018-09-12T11:51:38.673Z,21.24
2018-09-12T11:54:07.668Z,21.10
2018-09-12T11:56:36.644Z,21.08
2018-09-12T11:59:05.620Z,20.73
2018-09-12T12:01:34.621Z,20.36
2018-09-12T12:04:03.675Z,20.19
2018-09-12T12:06:32.633Z,20.13
2018-09-12T12:09:01.616Z,20.20
2018-09-12T12:11:30.754Z,20.27
2018-09-12T12:13:59.736Z,20.40
2018-09-12T12:16:28.802Z,20.53
2018-09-12T12:18:59.016Z,20.49
2018-09-12T12:21:28.473Z,20.60
2018-09-12T12:23:57.458Z,20.70
2018-09-12T12:26:26.505Z,20.80
2018-09-12T12:28:55.632Z,20.99
2018-09-12T12:31:24.632Z,21.24
2018-09-12T12:33:53.637Z,21.40
2018-09-12T12:36:23.989Z,21.51
2018-09-12T12:38:52.988Z,21.54
2018-09-12T12:41:22.001Z,22.02
2018-09-12T12:43:51.019Z,22.42
2018-09-12T12:46:20.029Z,22.81
2018-09-12T12:48:50.208Z,23.01
2018-09-12T12:51:20.477Z,24.18
2018-09-12T12:53:49.458Z,23.67
2018-09-12T12:56:18.400Z,24.17
2018-09-12T12:58:47.500Z,23.76
2018-09-12T13:01:16.502Z,23.28
2018-09-12T13:03:45.500Z,23.57
2018-09-12T13:06:14.540Z,23.66
2018-09-12T13:08:43.544Z,23.27
2018-09-12T13:11:12.544Z,23.48
2018-09-12T13:13:41.657Z,23.64
2018-09-12T13:16:10.639Z,23.55
2018-09-12T13:18:39.655Z,23.64
2018-09-12T13:21:08.771Z,23.46
2018-09-12T13:23:37.812Z,23.19
2018-09-12T13:26:06.914Z,22.91
2018-09-12T13:28:36.163Z,23.28
2018-09-12T13:31:05.182Z,24.24
2018-09-12T13:33:34.192Z,23.85
2018-09-12T13:36:03.252Z,22.93
2018-09-12T13:38:32.225Z,21.18
2018-09-12T13:41:01.192Z,20.49
2018-09-12T13:43:30.276Z,20.13
2018-09-12T13:45:59.268Z,19.99
2018-09-12T13:48:28.270Z,19.88
2018-09-12T13:50:57.304Z,19.93
2018-09-12T13:53:26.283Z,20.05
2018-09-12T13:55:55.289Z,20.26
2018-09-12T13:58:24.151Z,20.28
2018-09-12T14:00:53.100Z,20.35
2018-09-12T14:03:22.178Z,20.39
2018-09-12T14:05:51.109Z,20.45
2018-09-12T14:08:20.132Z,20.59
2018-09-12T14:10:49.059Z,20.69
2018-09-12T14:13:18.049Z,21.05
2018-09-12T14:15:46.977Z,21.26
2018-09-12T14:18:15.853Z,21.82
2018-09-12T14:20:44.977Z,23.69
2018-09-12T14:23:13.931Z,23.91
2018-09-12T14:25:42.946Z,24.26
2018-09-12T14:28:11.869Z,22.93
2018-09-12T14:30:40.830Z,22.71
2018-09-12T14:33:09.708Z,22.63
2018-09-12T14:35:41.830Z,22.25
2018-09-12T14:38:10.741Z,22.21
2018-09-12T14:40:40.841Z,22.66
2018-09-12T14:43:11.364Z,23.72
2018-09-12T14:45:40.322Z,24.31
2018-09-12T14:48:09.225Z,24.65
2018-09-12T14:50:38.272Z,24.67
2018-09-12T14:53:07.293Z,25.71
2018-09-12T14:55:36.302Z,25.33
2018-09-12T14:58:06.594Z,24.65
2018-09-12T15:00:35.492Z,24.63
2018-09-12T15:03:04.539Z,24.44
2018-09-12T15:05:34.610Z,24.26
2018-09-12T15:08:03.518Z,24.34
2018-09-12T15:10:32.477Z,24.07
2018-09-12T15:13:01.690Z,23.87
2018-09-12T15:15:30.537Z,23.71
2018-09-12T15:17:59.410Z,23.30
2018-09-12T15:20:28.347Z,22.98
2018-09-12T15:22:57.249Z,22.73
2018-09-12T15:25:26.093Z,22.67
2018-09-12T15:27:56.307Z,22.50
2018-09-12T15:30:25.201Z,22.32
2018-09-12T15:32:54.082Z,22.10
2018-09-12T15:35:23.012Z,22.11
2018-09-12T15:37:52.044Z,21.97
2018-09-12T15:40:21.002Z,21.70
2018-09-12T15:42:49.942Z,21.60
2018-09-12T15:45:18.807Z,21.56
2018-09-12T15:47:47.691Z,21.38
2018-09-12T15:50:16.626Z,21.26
2018-09-12T15:52:45.571Z,21.18
2018-09-12T15:55:14.439Z,21.10
2018-09-12T15:57:43.352Z,21.03
2018-09-12T16:00:12.280Z,20.98
2018-09-12T16:02:41.227Z,20.84
2018-09-12T16:05:15.431Z,20.87
2018-09-12T16:07:44.588Z,20.69
2018-09-12T16:10:13.522Z,20.68
2018-09-12T16:12:48.508Z,20.61
2018-09-12T16:15:18.798Z,20.56
2018-09-12T16:17:47.703Z,20.55
2018-09-12T16:20:16.578Z,20.57
2018-09-12T16:22:45.579Z,20.47
2018-09-12T16:25:14.482Z,20.37
2018-09-12T16:27:43.362Z,20.35
2018-09-12T16:30:12.286Z,20.32
2018-09-12T16:32:41.221Z,20.20
2018-09-12T16:35:10.147Z,20.21
2018-09-12T16:37:39.034Z,20.22
2018-09-12T16:40:08.147Z,20.20
2018-09-12T16:42:37.005Z,20.17
2018-09-12T16:45:06.011Z,20.15
2018-09-12T16:47:34.982Z,20.07
2018-09-12T16:50:03.997Z,20.03
2018-09-12T16:52:33.222Z,19.93
2018-09-12T16:55:03.359Z,19.85
2018-09-12T16:57:32.223Z,19.72
2018-09-12T17:00:02.331Z,19.72
2018-09-12T17:02:32.453Z,19.74
2018-09-12T17:05:01.306Z,19.70
2018-09-12T17:07:30.149Z,19.45
2018-09-12T17:09:59.060Z,19.57
2018-09-12T17:12:27.873Z,19.42
2018-09-12T17:14:56.710Z,19.59
2018-09-12T17:17:25.568Z,19.60
2018-09-12T17:19:54.431Z,19.29
2018-09-12T17:22:23.290Z,19.19
2018-09-12T17:24:52.190Z,19.15
2018-09-12T17:27:21.059Z,19.23
2018-09-12T17:29:49.933Z,19.29
2018-09-12T17:32:18.877Z,19.23
2018-09-12T17:34:48.229Z,19.27
2018-09-12T17:37:17.068Z,19.22
2018-09-12T17:39:45.914Z,19.25
2018-09-12T17:42:14.816Z,19.31
2018-09-12T17:44:43.681Z,19.51
2018-09-12T17:47:12.598Z,19.52
2018-09-12T17:49:41.590Z,19.60
2018-09-12T17:52:10.456Z,19.59
2018-09-12T17:54:39.351Z,19.59
2018-09-12T17:57:08.310Z,19.58
2018-09-12T17:59:37.154Z,19.54
2018-09-12T18:02:06.022Z,19.55
2018-09-12T18:04:34.972Z,19.53
2018-09-12T18:07:03.825Z,19.44
2018-09-12T18:09:32.725Z,19.51
2018-09-12T18:12:01.682Z,19.45
2018-09-12T18:14:30.523Z,19.54
2018-09-12T18:16:59.388Z,19.50
2018-09-12T18:19:29.682Z,19.51
2018-09-12T18:21:58.683Z,19.50
2018-09-12T18:24:27.743Z,19.52
2018-09-12T18:26:56.640Z,19.57
2018-09-12T18:29:26.972Z,19.52
2018-09-12T18:31:55.814Z,19.67
2018-09-12T18:34:24.656Z,19.51
2018-09-12T18:36:53.615Z,19.43
2018-09-12T18:39:22.476Z,19.40
2018-09-12T18:41:51.331Z,19.39
2018-09-12T18:44:21.549Z,19.35
2018-09-12T18:46:50.383Z,19.20
2018-09-12T18:49:19.444Z,19.26
2018-09-12T18:51:48.299Z,19.22
2018-09-12T18:54:17.126Z,19.25
2018-09-12T18:56:45.986Z,19.30
2018-09-12T18:59:14.891Z,19.37
2018-09-12T19:01:43.827Z,19.33
2018-09-12T19:04:12.813Z,19.32
2018-09-12T19:06:44.581Z,19.24
2018-09-12T19:09:14.943Z,19.21
2018-09-12T19:11:43.868Z,19.15
2018-09-12T19:14:12.782Z,19.16
2018-09-12T19:16:53.912Z,19.13
2018-09-12T19:19:29.166Z,19.20
2018-09-12T19:21:58.200Z,19.20
2018-09-12T19:24:27.052Z,19.20
2018-09-12T19:26:55.905Z,19.10
2018-09-12T19:29:24.791Z,19.13
2018-09-12T19:31:53.688Z,19.04
2018-09-12T19:34:22.546Z,19.04
2018-09-12T19:36:51.447Z,19.11
2018-09-12T19:39:20.552Z,19.11
2018-09-12T19:41:50.934Z,19.12
2018-09-12T19:44:22.438Z,19.23
2018-09-12T19:46:51.322Z,19.29
2018-09-12T19:49:20.373Z,19.27
2018-09-12T19:51:49.406Z,19.23
2018-09-12T19:54:18.412Z,19.21
2018-09-12T19:56:47.928Z,19.14
2018-09-12T19:59:16.816Z,19.13
2018-09-12T20:01:45.707Z,19.08
2018-09-12T20:04:14.627Z,19.14
2018-09-12T20:06:43.510Z,19.11
2018-09-12T20:09:12.651Z,19.10
2018-09-12T20:11:41.838Z,19.06
2018-09-12T20:14:10.908Z,18.96
2018-09-12T20:16:39.774Z,18.93
2018-09-12T20:19:08.670Z,18.85
2018-09-12T20:21:37.518Z,18.87
2018-09-12T20:24:06.502Z,18.87
2018-09-12T20:26:35.327Z,18.95
2018-09-12T20:29:04.155Z,18.94
2018-09-12T20:31:33.045Z,18.85
2018-09-12T20:34:01.922Z,18.62
2018-09-12T20:36:30.738Z,18.64
2018-09-12T20:38:59.602Z,18.73
2018-09-12T20:41:28.484Z,18.70
2018-09-12T20:43:57.514Z,18.68
2018-09-12T20:46:26.347Z,18.67
2018-09-12T20:48:55.290Z,18.69
2018-09-12T20:51:25.350Z,18.63
2018-09-12T20:53:54.246Z,18.64
2018-09-12T20:56:23.075Z,18.67
2018-09-12T20:58:51.959Z,18.76
2018-09-12T21:01:20.793Z,18.82
2018-09-12T21:03:49.626Z,18.83
2018-09-12T21:06:18.497Z,18.88
2018-09-12T21:08:47.311Z,18.91
2018-09-12T21:11:16.138Z,18.95
2018-09-12T21:13:45.175Z,18.92
2018-09-12T21:16:14.018Z,18.87
2018-09-12T21:18:42.846Z,18.89
2018-09-12T21:21:11.706Z,18.83
2018-09-12T21:23:40.606Z,18.77
2018-09-12T21:26:09.505Z,18.76
2018-09-12T21:28:38.510Z,18.83
2018-09-12T21:31:07.430Z,18.83
2018-09-12T21:33:36.328Z,18.76
2018-09-12T21:36:05.306Z,18.74
2018-09-12T21:38:34.221Z,18.77
2018-09-12T21:41:03.194Z,18.67
2018-09-12T21:43:32.301Z,18.63
2018-09-12T21:46:01.162Z,18.66
2018-09-12T21:48:30.054Z,18.62
2018-09-12T21:50:58.942Z,18.67
2018-09-12T21:53:27.758Z,18.67
2018-09-12T21:55:56.573Z,18.67
2018-09-12T21:58:25.474Z,18.65
2018-09-12T22:00:54.436Z,18.56
2018-09-12T22:03:23.422Z,18.51
2018-09-12T22:05:52.344Z,18.47
2018-09-12T22:08:21.164Z,18.49
2018-09-12T22:10:50.050Z,18.55
2018-09-12T22:13:18.961Z,18.56
2018-09-12T22:15:48.357Z,18.52
2018-09-12T22:18:17.228Z,18.41
2018-09-12T22:20:46.066Z,18.50
2018-09-12T22:23:14.886Z,18.49
2018-09-12T22:25:43.871Z,18.42
2018-09-12T22:28:12.718Z,18.42
2018-09-12T22:30:41.555Z,18.41
2018-09-12T22:33:10.445Z,18.43
2018-09-12T22:35:39.273Z,18.35
2018-09-12T22:38:08.111Z,18.45
2018-09-12T22:40:38.237Z,18.42
2018-09-12T22:43:07.224Z,18.45
2018-09-12T22:45:36.072Z,18.44
2018-09-12T22:48:04.914Z,18.47
2018-09-12T22:50:33.896Z,18.54
2018-09-12T22:53:02.722Z,18.60
2018-09-12T22:55:31.551Z,18.54
2018-09-12T22:58:00.426Z,18.56
2018-09-12T23:00:29.347Z,18.61
2018-09-12T23:02:58.158Z,18.57
2018-09-12T23:05:27.075Z,18.65
2018-09-12T23:07:55.881Z,18.62
2018-09-12T23:10:24.708Z,18.69
2018-09-12T23:12:53.590Z,18.59
2018-09-12T23:15:22.430Z,18.59
2018-09-12T23:17:51.298Z,18.53
2018-09-12T23:20:20.158Z,18.55
2018-09-12T23:22:48.979Z,18.65
2018-09-12T23:25:17.867Z,18.57
2018-09-12T23:27:46.707Z,18.56
2018-09-12T23:30:15.510Z,18.62
2018-09-12T23:32:45.598Z,18.62
2018-09-12T23:35:14.455Z,18.56
2018-09-12T23:37:43.305Z,18.47
2018-09-12T23:40:12.159Z,18.46
2018-09-12T23:42:41.014Z,18.38
2018-09-12T23:45:09.849Z,18.46
2018-09-12T23:47:38.663Z,18.48
2018-09-12T23:50:07.641Z,18.50
2018-09-12T23:52:36.450Z,18.50
2018-09-12T23:55:05.316Z,18.52
2018-09-12T23:57:34.174Z,18.50
